sensor_id;sensor_type;location;lat;lon;timestamp;P1;durP1;ratioP1;P2;durP2;ratioP2
22015;SDS011;64992;51.698;-0.292;2022-11-20T00:01:48;23.45;;;14.85;;
22015;SDS011;64992;51.698;-0.292;2022-11-20T00:04:14;28.25;;;14.50;;
22015;SDS011;64992;51.698;-0.292;2022-11-20T00:06:40;40.03;;;17.52;;
22015;SDS011;64992;51.698;-0.292;2022-11-20T00:09:06;31.63;;;17.27;;
22015;SDS011;64992;51.698;-0.292;2022-11-20T00:11:32;29.45;;;16.42;;
22015;SDS011;64992;51.698;-0.292;2022-11-20T00:13:59;29.90;;;16.55;;
22015;SDS011;64992;51.698;-0.292;2022-11-20T00:16:26;32.75;;;17.70;;
22015;SDS011;64992;51.698;-0.292;2022-11-20T00:18:52;32.45;;;16.42;;
22015;SDS011;64992;51.698;-0.292;2022-11-20T00:21:23;31.15;;;17.27;;
22015;SDS011;64992;51.698;-0.292;2022-11-20T00:23:49;32.65;;;18.13;;
22015;SDS011;64992;51.698;-0.292;2022-11-20T00:26:16;38.83;;;18.30;;
22015;SDS011;64992;51.698;-0.292;2022-11-20T00:28:43;43.65;;;21.00;;
22015;SDS011;64992;51.698;-0.292;2022-11-20T00:31:10;40.47;;;20.88;;
22015;SDS011;64992;51.698;-0.292;2022-11-20T00:33:36;37.55;;;20.38;;
22015;SDS011;64992;51.698;-0.292;2022-11-20T00:36:09;35.13;;;18.02;;
22015;SDS011;64992;51.698;-0.292;2022-11-20T00:38:35;30.80;;;18.02;;
22015;SDS011;64992;51.698;-0.292;2022-11-20T00:41:05;30.10;;;18.40;;
22015;SDS011;64992;51.698;-0.292;2022-11-20T00:43:32;33.00;;;18.20;;
22015;SDS011;64992;51.698;-0.292;2022-11-20T00:45:58;39.88;;;18.30;;
22015;SDS011;64992;51.698;-0.292;2022-11-20T00:48:25;45.08;;;19.10;;
22015;SDS011;64992;51.698;-0.292;2022-11-20T00:50:51;39.83;;;17.08;;
22015;SDS011;64992;51.698;-0.292;2022-11-20T00:53:17;34.13;;;19.35;;
22015;SDS011;64992;51.698;-0.292;2022-11-20T00:55:51;38.35;;;18.23;;
22015;SDS011;64992;51.698;-0.292;2022-11-20T00:58:17;37.22;;;17.98;;
22015;SDS011;64992;51.698;-0.292;2022-11-20T01:00:43;35.80;;;17.75;;
22015;SDS011;64992;51.698;-0.292;2022-11-20T01:03:09;32.35;;;18.35;;
22015;SDS011;64992;51.698;-0.292;2022-11-20T01:05:35;39.75;;;17.42;;
22015;SDS011;64992;51.698;-0.292;2022-11-20T01:08:01;36.55;;;18.85;;
22015;SDS011;64992;51.698;-0.292;2022-11-20T01:10:27;34.42;;;18.33;;
22015;SDS011;64992;51.698;-0.292;2022-11-20T01:12:53;38.97;;;17.33;;
22015;SDS011;64992;51.698;-0.292;2022-11-20T01:15:38;25.67;;;17.67;;
22015;SDS011;64992;51.698;-0.292;2022-11-20T01:18:04;36.50;;;16.60;;
22015;SDS011;64992;51.698;-0.292;2022-11-20T01:20:33;36.65;;;17.30;;
22015;SDS011;64992;51.698;-0.292;2022-11-20T01:22:59;33.95;;;16.38;;
22015;SDS011;64992;51.698;-0.292;2022-11-20T01:25:25;28.63;;;15.95;;
22015;SDS011;64992;51.698;-0.292;2022-11-20T01:27:51;27.17;;;15.93;;
22015;SDS011;64992;51.698;-0.292;2022-11-20T01:30:17;31.02;;;15.85;;
22015;SDS011;64992;51.698;-0.292;2022-11-20T01:32:43;31.13;;;14.90;;
22015;SDS011;64992;51.698;-0.292;2022-11-20T01:35:09;26.40;;;15.45;;
22015;SDS011;64992;51.698;-0.292;2022-11-20T01:37:35;28.15;;;15.23;;
22015;SDS011;64992;51.698;-0.292;2022-11-20T01:40:01;28.98;;;14.10;;
22015;SDS011;64992;51.698;-0.292;2022-11-20T01:42:27;25.67;;;13.63;;
22015;SDS011;64992;51.698;-0.292;2022-11-20T01:47:57;18.98;;;12.07;;
22015;SDS011;64992;51.698;-0.292;2022-11-20T01:50:24;25.70;;;12.50;;
22015;SDS011;64992;51.698;-0.292;2022-11-20T01:55:21;20.95;;;10.90;;
22015;SDS011;64992;51.698;-0.292;2022-11-20T01:57:47;28.98;;;12.00;;
22015;SDS011;64992;51.698;-0.292;2022-11-20T02:00:15;28.60;;;11.00;;
22015;SDS011;64992;51.698;-0.292;2022-11-20T02:02:43;19.00;;;9.80;;
22015;SDS011;64992;51.698;-0.292;2022-11-20T02:05:21;17.67;;;9.43;;
22015;SDS011;64992;51.698;-0.292;2022-11-20T02:07:48;28.55;;;8.88;;
22015;SDS011;64992;51.698;-0.292;2022-11-20T02:10:14;26.38;;;8.13;;
22015;SDS011;64992;51.698;-0.292;2022-11-20T02:12:40;16.05;;;7.18;;
22015;SDS011;64992;51.698;-0.292;2022-11-20T02:15:25;19.60;;;6.65;;
22015;SDS011;64992;51.698;-0.292;2022-11-20T02:17:51;15.88;;;6.90;;
22015;SDS011;64992;51.698;-0.292;2022-11-20T02:20:17;15.10;;;6.25;;
22015;SDS011;64992;51.698;-0.292;2022-11-20T02:22:59;11.15;;;5.13;;
22015;SDS011;64992;51.698;-0.292;2022-11-20T02:25:29;9.52;;;5.00;;
22015;SDS011;64992;51.698;-0.292;2022-11-20T02:27:56;16.75;;;4.90;;
22015;SDS011;64992;51.698;-0.292;2022-11-20T02:30:22;11.15;;;5.28;;
22015;SDS011;64992;51.698;-0.292;2022-11-20T02:32:48;10.25;;;4.57;;
22015;SDS011;64992;51.698;-0.292;2022-11-20T02:37:43;14.05;;;5.30;;
22015;SDS011;64992;51.698;-0.292;2022-11-20T02:40:10;15.57;;;4.80;;
22015;SDS011;64992;51.698;-0.292;2022-11-20T02:42:36;9.93;;;4.88;;
22015;SDS011;64992;51.698;-0.292;2022-11-20T02:45:06;12.75;;;5.15;;
22015;SDS011;64992;51.698;-0.292;2022-11-20T02:47:32;13.82;;;5.95;;
22015;SDS011;64992;51.698;-0.292;2022-11-20T02:49:58;11.18;;;6.30;;
22015;SDS011;64992;51.698;-0.292;2022-11-20T02:52:24;15.38;;;5.65;;
22015;SDS011;64992;51.698;-0.292;2022-11-20T02:54:50;17.00;;;5.43;;
22015;SDS011;64992;51.698;-0.292;2022-11-20T02:57:16;10.80;;;5.75;;
22015;SDS011;64992;51.698;-0.292;2022-11-20T02:59:42;14.95;;;5.88;;
22015;SDS011;64992;51.698;-0.292;2022-11-20T03:02:08;15.18;;;5.53;;
22015;SDS011;64992;51.698;-0.292;2022-11-20T03:04:34;12.50;;;5.75;;
22015;SDS011;64992;51.698;-0.292;2022-11-20T03:07:00;19.15;;;6.10;;
22015;SDS011;64992;51.698;-0.292;2022-11-20T03:09:26;15.25;;;5.60;;
22015;SDS011;64992;51.698;-0.292;2022-11-20T03:11:52;11.77;;;5.63;;
22015;SDS011;64992;51.698;-0.292;2022-11-20T03:14:18;12.30;;;6.05;;
22015;SDS011;64992;51.698;-0.292;2022-11-20T03:16:44;14.25;;;5.80;;
22015;SDS011;64992;51.698;-0.292;2022-11-20T03:19:11;20.90;;;7.10;;
22015;SDS011;64992;51.698;-0.292;2022-11-20T03:21:37;10.93;;;6.30;;
22015;SDS011;64992;51.698;-0.292;2022-11-20T03:24:03;19.38;;;6.05;;
22015;SDS011;64992;51.698;-0.292;2022-11-20T03:26:29;17.77;;;6.18;;
22015;SDS011;64992;51.698;-0.292;2022-11-20T03:28:59;15.07;;;7.00;;
22015;SDS011;64992;51.698;-0.292;2022-11-20T03:31:27;17.10;;;6.88;;
22015;SDS011;64992;51.698;-0.292;2022-11-20T03:33:53;11.85;;;6.93;;
22015;SDS011;64992;51.698;-0.292;2022-11-20T03:36:20;16.80;;;6.43;;
22015;SDS011;64992;51.698;-0.292;2022-11-20T03:38:46;15.52;;;6.50;;
22015;SDS011;64992;51.698;-0.292;2022-11-20T03:41:19;14.80;;;6.82;;
22015;SDS011;64992;51.698;-0.292;2022-11-20T03:43:49;20.55;;;6.53;;
22015;SDS011;64992;51.698;-0.292;2022-11-20T03:46:15;16.58;;;6.70;;
22015;SDS011;64992;51.698;-0.292;2022-11-20T03:48:41;16.33;;;6.97;;
22015;SDS011;64992;51.698;-0.292;2022-11-20T03:51:11;19.23;;;6.88;;
22015;SDS011;64992;51.698;-0.292;2022-11-20T03:53:38;17.35;;;6.97;;
22015;SDS011;64992;51.698;-0.292;2022-11-20T03:56:04;16.67;;;7.22;;
22015;SDS011;64992;51.698;-0.292;2022-11-20T03:58:30;14.25;;;6.97;;
22015;SDS011;64992;51.698;-0.292;2022-11-20T04:00:56;14.75;;;6.70;;
22015;SDS011;64992;51.698;-0.292;2022-11-20T04:03:23;11.32;;;6.63;;
22015;SDS011;64992;51.698;-0.292;2022-11-20T04:05:48;14.98;;;6.53;;
22015;SDS011;64992;51.698;-0.292;2022-11-20T04:08:14;10.02;;;6.35;;
22015;SDS011;64992;51.698;-0.292;2022-11-20T04:10:40;14.40;;;5.80;;
22015;SDS011;64992;51.698;-0.292;2022-11-20T04:13:06;14.93;;;7.10;;
22015;SDS011;64992;51.698;-0.292;2022-11-20T04:15:32;19.20;;;7.68;;
22015;SDS011;64992;51.698;-0.292;2022-11-20T04:17:58;13.93;;;6.55;;
22015;SDS011;64992;51.698;-0.292;2022-11-20T04:20:24;23.17;;;7.43;;
22015;SDS011;64992;51.698;-0.292;2022-11-20T04:22:52;11.45;;;7.10;;
22015;SDS011;64992;51.698;-0.292;2022-11-20T04:25:19;17.08;;;6.80;;
22015;SDS011;64992;51.698;-0.292;2022-11-20T04:27:45;18.58;;;7.35;;
22015;SDS011;64992;51.698;-0.292;2022-11-20T04:30:11;20.83;;;7.47;;
22015;SDS011;64992;51.698;-0.292;2022-11-20T04:32:37;14.38;;;7.07;;
22015;SDS011;64992;51.698;-0.292;2022-11-20T04:35:03;12.95;;;6.40;;
22015;SDS011;64992;51.698;-0.292;2022-11-20T04:37:29;15.98;;;6.82;;
22015;SDS011;64992;51.698;-0.292;2022-11-20T04:39:55;15.05;;;6.68;;
22015;SDS011;64992;51.698;-0.292;2022-11-20T04:42:21;12.88;;;6.65;;
22015;SDS011;64992;51.698;-0.292;2022-11-20T04:44:53;10.55;;;6.45;;
22015;SDS011;64992;51.698;-0.292;2022-11-20T04:47:19;17.45;;;6.72;;
22015;SDS011;64992;51.698;-0.292;2022-11-20T04:49:45;22.13;;;7.43;;
22015;SDS011;64992;51.698;-0.292;2022-11-20T04:52:11;16.65;;;6.55;;
22015;SDS011;64992;51.698;-0.292;2022-11-20T04:54:37;12.35;;;6.35;;
22015;SDS011;64992;51.698;-0.292;2022-11-20T04:57:03;19.00;;;6.75;;
22015;SDS011;64992;51.698;-0.292;2022-11-20T04:59:29;14.00;;;6.95;;
22015;SDS011;64992;51.698;-0.292;2022-11-20T05:01:55;15.82;;;6.88;;
22015;SDS011;64992;51.698;-0.292;2022-11-20T05:04:21;13.82;;;6.43;;
22015;SDS011;64992;51.698;-0.292;2022-11-20T05:06:47;23.45;;;7.68;;
22015;SDS011;64992;51.698;-0.292;2022-11-20T05:09:13;17.38;;;6.72;;
22015;SDS011;64992;51.698;-0.292;2022-11-20T05:11:39;16.65;;;6.72;;
22015;SDS011;64992;51.698;-0.292;2022-11-20T05:14:05;20.30;;;7.47;;
22015;SDS011;64992;51.698;-0.292;2022-11-20T05:16:33;17.73;;;7.43;;
22015;SDS011;64992;51.698;-0.292;2022-11-20T05:19:00;20.00;;;7.78;;
22015;SDS011;64992;51.698;-0.292;2022-11-20T05:21:26;13.23;;;7.55;;
22015;SDS011;64992;51.698;-0.292;2022-11-20T05:23:52;20.67;;;8.07;;
22015;SDS011;64992;51.698;-0.292;2022-11-20T05:26:19;20.25;;;7.60;;
22015;SDS011;64992;51.698;-0.292;2022-11-20T05:28:46;20.35;;;7.78;;
22015;SDS011;64992;51.698;-0.292;2022-11-20T05:31:13;14.40;;;7.90;;
22015;SDS011;64992;51.698;-0.292;2022-11-20T05:33:40;9.88;;;7.38;;
22015;SDS011;64992;51.698;-0.292;2022-11-20T05:36:07;18.33;;;9.20;;
22015;SDS011;64992;51.698;-0.292;2022-11-20T05:38:33;17.90;;;8.23;;
22015;SDS011;64992;51.698;-0.292;2022-11-20T05:41:18;16.90;;;8.32;;
22015;SDS011;64992;51.698;-0.292;2022-11-20T05:43:45;14.95;;;7.90;;
22015;SDS011;64992;51.698;-0.292;2022-11-20T05:46:12;14.18;;;7.55;;
22015;SDS011;64992;51.698;-0.292;2022-11-20T05:48:39;13.75;;;8.73;;
22015;SDS011;64992;51.698;-0.292;2022-11-20T05:51:06;12.63;;;8.27;;
22015;SDS011;64992;51.698;-0.292;2022-11-20T05:53:33;15.70;;;8.38;;
22015;SDS011;64992;51.698;-0.292;2022-11-20T05:56:00;13.68;;;8.82;;
22015;SDS011;64992;51.698;-0.292;2022-11-20T05:58:26;17.70;;;8.05;;
22015;SDS011;64992;51.698;-0.292;2022-11-20T06:00:52;23.10;;;9.32;;
22015;SDS011;64992;51.698;-0.292;2022-11-20T06:03:18;14.50;;;7.97;;
22015;SDS011;64992;51.698;-0.292;2022-11-20T06:05:44;15.55;;;7.30;;
22015;SDS011;64992;51.698;-0.292;2022-11-20T06:08:10;12.48;;;7.13;;
22015;SDS011;64992;51.698;-0.292;2022-11-20T06:10:36;12.65;;;7.85;;
22015;SDS011;64992;51.698;-0.292;2022-11-20T06:13:02;17.15;;;8.55;;
22015;SDS011;64992;51.698;-0.292;2022-11-20T06:15:28;20.50;;;9.18;;
22015;SDS011;64992;51.698;-0.292;2022-11-20T06:17:55;14.57;;;8.43;;
22015;SDS011;64992;51.698;-0.292;2022-11-20T06:20:21;16.63;;;7.53;;
22015;SDS011;64992;51.698;-0.292;2022-11-20T06:22:47;16.58;;;8.35;;
22015;SDS011;64992;51.698;-0.292;2022-11-20T06:25:13;19.02;;;8.88;;
22015;SDS011;64992;51.698;-0.292;2022-11-20T06:27:39;15.48;;;7.57;;
22015;SDS011;64992;51.698;-0.292;2022-11-20T06:30:05;12.43;;;8.18;;
22015;SDS011;64992;51.698;-0.292;2022-11-20T06:32:32;20.38;;;8.05;;
22015;SDS011;64992;51.698;-0.292;2022-11-20T06:34:58;13.10;;;7.95;;
22015;SDS011;64992;51.698;-0.292;2022-11-20T06:37:24;13.95;;;8.07;;
22015;SDS011;64992;51.698;-0.292;2022-11-20T06:39:50;19.75;;;8.70;;
22015;SDS011;64992;51.698;-0.292;2022-11-20T06:42:16;21.33;;;9.15;;
22015;SDS011;64992;51.698;-0.292;2022-11-20T06:44:42;22.70;;;9.70;;
22015;SDS011;64992;51.698;-0.292;2022-11-20T06:47:08;18.83;;;9.63;;
22015;SDS011;64992;51.698;-0.292;2022-11-20T06:49:34;19.25;;;9.45;;
22015;SDS011;64992;51.698;-0.292;2022-11-20T06:52:02;19.08;;;11.90;;
22015;SDS011;64992;51.698;-0.292;2022-11-20T06:54:27;40.22;;;12.45;;
22015;SDS011;64992;51.698;-0.292;2022-11-20T06:56:53;20.25;;;11.05;;
22015;SDS011;64992;51.698;-0.292;2022-11-20T06:59:19;15.85;;;9.93;;
22015;SDS011;64992;51.698;-0.292;2022-11-20T07:01:46;21.58;;;10.05;;
22015;SDS011;64992;51.698;-0.292;2022-11-20T07:04:12;17.63;;;7.47;;
22015;SDS011;64992;51.698;-0.292;2022-11-20T07:06:38;8.45;;;7.03;;
22015;SDS011;64992;51.698;-0.292;2022-11-20T07:09:04;10.85;;;6.97;;
22015;SDS011;64992;51.698;-0.292;2022-11-20T07:11:30;12.20;;;6.45;;
22015;SDS011;64992;51.698;-0.292;2022-11-20T07:13:56;12.32;;;6.57;;
22015;SDS011;64992;51.698;-0.292;2022-11-20T07:16:22;16.98;;;7.00;;
22015;SDS011;64992;51.698;-0.292;2022-11-20T07:18:48;16.73;;;7.28;;
22015;SDS011;64992;51.698;-0.292;2022-11-20T07:21:14;16.42;;;7.95;;
22015;SDS011;64992;51.698;-0.292;2022-11-20T07:23:40;16.90;;;7.57;;
22015;SDS011;64992;51.698;-0.292;2022-11-20T07:26:07;17.92;;;8.02;;
22015;SDS011;64992;51.698;-0.292;2022-11-20T07:28:33;17.40;;;9.18;;
22015;SDS011;64992;51.698;-0.292;2022-11-20T07:30:59;14.48;;;7.72;;
22015;SDS011;64992;51.698;-0.292;2022-11-20T07:33:25;443.58;;;66.63;;
22015;SDS011;64992;51.698;-0.292;2022-11-20T07:35:51;12.65;;;8.10;;
22015;SDS011;64992;51.698;-0.292;2022-11-20T07:38:17;18.63;;;8.85;;
22015;SDS011;64992;51.698;-0.292;2022-11-20T07:40:43;13.75;;;8.88;;
22015;SDS011;64992;51.698;-0.292;2022-11-20T07:43:09;16.50;;;9.65;;
22015;SDS011;64992;51.698;-0.292;2022-11-20T07:45:35;18.13;;;9.27;;
22015;SDS011;64992;51.698;-0.292;2022-11-20T07:48:02;57.08;;;11.95;;
22015;SDS011;64992;51.698;-0.292;2022-11-20T07:50:28;21.23;;;9.77;;
22015;SDS011;64992;51.698;-0.292;2022-11-20T07:53:00;29.70;;;10.15;;
22015;SDS011;64992;51.698;-0.292;2022-11-20T07:55:26;23.08;;;12.50;;
22015;SDS011;64992;51.698;-0.292;2022-11-20T07:57:55;31.02;;;12.90;;
22015;SDS011;64992;51.698;-0.292;2022-11-20T08:00:25;23.17;;;12.15;;
22015;SDS011;64992;51.698;-0.292;2022-11-20T08:02:51;22.38;;;11.40;;
22015;SDS011;64992;51.698;-0.292;2022-11-20T08:05:17;100.53;;;14.02;;
22015;SDS011;64992;51.698;-0.292;2022-11-20T08:07:43;46.22;;;11.48;;
22015;SDS011;64992;51.698;-0.292;2022-11-20T08:10:10;39.17;;;11.77;;
22015;SDS011;64992;51.698;-0.292;2022-11-20T08:12:42;184.80;;;16.80;;
22015;SDS011;64992;51.698;-0.292;2022-11-20T08:15:47;60.38;;;20.10;;
22015;SDS011;64992;51.698;-0.292;2022-11-20T08:18:15;60.28;;;29.38;;
22015;SDS011;64992;51.698;-0.292;2022-11-20T08:20:41;29.33;;;13.98;;
22015;SDS011;64992;51.698;-0.292;2022-11-20T08:23:07;38.60;;;22.60;;
22015;SDS011;64992;51.698;-0.292;2022-11-20T08:25:34;37.63;;;18.63;;
22015;SDS011;64992;51.698;-0.292;2022-11-20T08:28:00;70.90;;;29.77;;
22015;SDS011;64992;51.698;-0.292;2022-11-20T08:30:27;30.15;;;18.75;;
22015;SDS011;64992;51.698;-0.292;2022-11-20T08:32:53;40.20;;;20.10;;
22015;SDS011;64992;51.698;-0.292;2022-11-20T08:35:20;51.85;;;18.92;;
22015;SDS011;64992;51.698;-0.292;2022-11-20T08:37:46;58.55;;;20.80;;
22015;SDS011;64992;51.698;-0.292;2022-11-20T08:40:13;45.92;;;19.25;;
22015;SDS011;64992;51.698;-0.292;2022-11-20T08:42:45;34.42;;;19.95;;
22015;SDS011;64992;51.698;-0.292;2022-11-20T08:47:38;34.67;;;21.75;;
22015;SDS011;64992;51.698;-0.292;2022-11-20T08:50:04;97.43;;;21.58;;
22015;SDS011;64992;51.698;-0.292;2022-11-20T08:52:30;45.78;;;21.58;;
22015;SDS011;64992;51.698;-0.292;2022-11-20T08:54:56;20.58;;;11.23;;
22015;SDS011;64992;51.698;-0.292;2022-11-20T08:57:22;46.05;;;12.35;;
22015;SDS011;64992;51.698;-0.292;2022-11-20T08:59:48;33.78;;;13.00;;
22015;SDS011;64992;51.698;-0.292;2022-11-20T09:02:14;225.57;;;27.33;;
22015;SDS011;64992;51.698;-0.292;2022-11-20T09:04:40;52.95;;;26.60;;
22015;SDS011;64992;51.698;-0.292;2022-11-20T09:07:06;30.25;;;17.40;;
22015;SDS011;64992;51.698;-0.292;2022-11-20T09:09:32;31.52;;;15.63;;
22015;SDS011;64992;51.698;-0.292;2022-11-20T09:11:58;23.10;;;14.50;;
22015;SDS011;64992;51.698;-0.292;2022-11-20T09:14:24;134.13;;;38.65;;
22015;SDS011;64992;51.698;-0.292;2022-11-20T09:16:54;22.27;;;12.25;;
22015;SDS011;64992;51.698;-0.292;2022-11-20T09:19:20;15.68;;;9.93;;
22015;SDS011;64992;51.698;-0.292;2022-11-20T09:21:46;17.52;;;9.38;;
22015;SDS011;64992;51.698;-0.292;2022-11-20T09:24:12;15.52;;;9.35;;
22015;SDS011;64992;51.698;-0.292;2022-11-20T09:26:38;25.75;;;10.00;;
22015;SDS011;64992;51.698;-0.292;2022-11-20T09:29:04;18.17;;;8.73;;
22015;SDS011;64992;51.698;-0.292;2022-11-20T09:31:30;18.60;;;8.50;;
22015;SDS011;64992;51.698;-0.292;2022-11-20T09:33:57;25.35;;;9.13;;
22015;SDS011;64992;51.698;-0.292;2022-11-20T09:36:23;26.13;;;7.65;;
22015;SDS011;64992;51.698;-0.292;2022-11-20T09:38:49;21.98;;;8.60;;
22015;SDS011;64992;51.698;-0.292;2022-11-20T09:44:07;21.48;;;8.52;;
22015;SDS011;64992;51.698;-0.292;2022-11-20T09:46:44;21.83;;;6.03;;
22015;SDS011;64992;51.698;-0.292;2022-11-20T09:49:19;25.27;;;5.88;;
22015;SDS011;64992;51.698;-0.292;2022-11-20T09:54:47;26.88;;;6.25;;
22015;SDS011;64992;51.698;-0.292;2022-11-20T09:57:21;46.42;;;7.53;;
22015;SDS011;64992;51.698;-0.292;2022-11-20T09:59:53;20.92;;;4.90;;
22015;SDS011;64992;51.698;-0.292;2022-11-20T10:07:51;22.05;;;4.75;;
22015;SDS011;64992;51.698;-0.292;2022-11-20T10:10:26;39.20;;;13.95;;
22015;SDS011;64992;51.698;-0.292;2022-11-20T10:20:43;28.83;;;4.63;;
22015;SDS011;64992;51.698;-0.292;2022-11-20T10:25:39;29.58;;;4.72;;
22015;SDS011;64992;51.698;-0.292;2022-11-20T10:30:36;33.75;;;4.45;;
22015;SDS011;64992;51.698;-0.292;2022-11-20T10:33:08;32.05;;;5.55;;
22015;SDS011;64992;51.698;-0.292;2022-11-20T10:35:40;27.45;;;5.05;;
22015;SDS011;64992;51.698;-0.292;2022-11-20T10:38:41;33.80;;;4.88;;
22015;SDS011;64992;51.698;-0.292;2022-11-20T10:41:01;25.80;;;4.45;;
22015;SDS011;64992;51.698;-0.292;2022-11-20T10:43:47;38.03;;;5.38;;
22015;SDS011;64992;51.698;-0.292;2022-11-20T10:46:15;30.10;;;4.88;;
22015;SDS011;64992;51.698;-0.292;2022-11-20T10:48:43;41.15;;;5.63;;
22015;SDS011;64992;51.698;-0.292;2022-11-20T10:51:18;21.15;;;4.22;;
22015;SDS011;64992;51.698;-0.292;2022-11-20T10:56:25;32.35;;;4.82;;
22015;SDS011;64992;51.698;-0.292;2022-11-20T11:01:41;51.35;;;6.05;;
22015;SDS011;64992;51.698;-0.292;2022-11-20T11:07:10;21.95;;;3.95;;
22015;SDS011;64992;51.698;-0.292;2022-11-20T11:09:43;34.50;;;4.68;;
22015;SDS011;64992;51.698;-0.292;2022-11-20T11:12:09;32.88;;;7.32;;
22015;SDS011;64992;51.698;-0.292;2022-11-20T11:14:42;42.75;;;5.38;;
22015;SDS011;64992;51.698;-0.292;2022-11-20T11:17:18;32.55;;;4.95;;
22015;SDS011;64992;51.698;-0.292;2022-11-20T11:19:45;39.30;;;5.80;;
22015;SDS011;64992;51.698;-0.292;2022-11-20T11:22:15;34.95;;;6.25;;
22015;SDS011;64992;51.698;-0.292;2022-11-20T11:24:50;29.20;;;5.07;;
22015;SDS011;64992;51.698;-0.292;2022-11-20T11:27:17;25.10;;;5.10;;
22015;SDS011;64992;51.698;-0.292;2022-11-20T11:29:43;35.60;;;5.03;;
22015;SDS011;64992;51.698;-0.292;2022-11-20T11:32:13;26.13;;;5.28;;
22015;SDS011;64992;51.698;-0.292;2022-11-20T11:34:39;23.92;;;4.88;;
22015;SDS011;64992;51.698;-0.292;2022-11-20T11:37:05;31.90;;;5.70;;
22015;SDS011;64992;51.698;-0.292;2022-11-20T11:39:36;23.02;;;5.03;;
22015;SDS011;64992;51.698;-0.292;2022-11-20T11:42:03;27.15;;;5.20;;
22015;SDS011;64992;51.698;-0.292;2022-11-20T11:44:30;28.20;;;4.35;;
22015;SDS011;64992;51.698;-0.292;2022-11-20T11:47:24;24.60;;;5.05;;
22015;SDS011;64992;51.698;-0.292;2022-11-20T11:50:33;26.98;;;6.22;;
22015;SDS011;64992;51.698;-0.292;2022-11-20T11:52:48;21.23;;;4.43;;
22015;SDS011;64992;51.698;-0.292;2022-11-20T11:55:29;33.17;;;4.57;;
22015;SDS011;64992;51.698;-0.292;2022-11-20T12:00:29;35.05;;;4.50;;
22015;SDS011;64992;51.698;-0.292;2022-11-20T12:05:40;25.85;;;4.53;;
22015;SDS011;64992;51.698;-0.292;2022-11-20T12:08:20;27.75;;;4.05;;
22015;SDS011;64992;51.698;-0.292;2022-11-20T12:11:06;22.63;;;4.35;;
22015;SDS011;64992;51.698;-0.292;2022-11-20T12:13:53;24.83;;;4.85;;
22015;SDS011;64992;51.698;-0.292;2022-11-20T12:16:20;27.02;;;6.10;;
22015;SDS011;64992;51.698;-0.292;2022-11-20T12:18:48;29.98;;;5.10;;
22015;SDS011;64992;51.698;-0.292;2022-11-20T12:26:13;20.80;;;5.07;;
22015;SDS011;64992;51.698;-0.292;2022-11-20T12:29:03;23.13;;;4.90;;
22015;SDS011;64992;51.698;-0.292;2022-11-20T12:49:52;20.38;;;3.55;;
22015;SDS011;64992;51.698;-0.292;2022-11-20T13:00:20;23.15;;;3.78;;
22015;SDS011;64992;51.698;-0.292;2022-11-20T13:08:00;22.67;;;4.20;;
22015;SDS011;64992;51.698;-0.292;2022-11-20T13:10:47;16.58;;;3.67;;
22015;SDS011;64992;51.698;-0.292;2022-11-20T14:48:18;32.08;;;5.63;;
22015;SDS011;64992;51.698;-0.292;2022-11-20T14:50:44;23.10;;;3.92;;
22015;SDS011;64992;51.698;-0.292;2022-11-20T14:53:10;24.60;;;4.43;;
22015;SDS011;64992;51.698;-0.292;2022-11-20T14:55:37;22.95;;;3.75;;
22015;SDS011;64992;51.698;-0.292;2022-11-20T14:58:06;21.50;;;4.63;;
22015;SDS011;64992;51.698;-0.292;2022-11-20T15:00:33;17.48;;;3.80;;
22015;SDS011;64992;51.698;-0.292;2022-11-20T15:02:59;20.75;;;3.72;;
22015;SDS011;64992;51.698;-0.292;2022-11-20T15:05:26;15.00;;;3.50;;
22015;SDS011;64992;51.698;-0.292;2022-11-20T15:08:07;17.90;;;3.42;;
22015;SDS011;64992;51.698;-0.292;2022-11-20T15:10:33;16.65;;;2.70;;
22015;SDS011;64992;51.698;-0.292;2022-11-20T15:13:11;17.65;;;4.50;;
22015;SDS011;64992;51.698;-0.292;2022-11-20T15:18:11;17.67;;;3.90;;
22015;SDS011;64992;51.698;-0.292;2022-11-20T15:20:38;21.58;;;3.78;;
22015;SDS011;64992;51.698;-0.292;2022-11-20T15:23:14;19.77;;;2.75;;
22015;SDS011;64992;51.698;-0.292;2022-11-20T15:25:41;12.88;;;3.63;;
22015;SDS011;64992;51.698;-0.292;2022-11-20T15:28:29;18.73;;;3.63;;
22015;SDS011;64992;51.698;-0.292;2022-11-20T15:30:53;11.45;;;3.08;;
22015;SDS011;64992;51.698;-0.292;2022-11-20T15:33:20;14.25;;;3.17;;
22015;SDS011;64992;51.698;-0.292;2022-11-20T15:35:46;19.17;;;3.10;;
22015;SDS011;64992;51.698;-0.292;2022-11-20T15:38:13;19.95;;;3.47;;
22015;SDS011;64992;51.698;-0.292;2022-11-20T15:40:39;13.55;;;3.58;;
22015;SDS011;64992;51.698;-0.292;2022-11-20T15:43:05;21.75;;;3.15;;
22015;SDS011;64992;51.698;-0.292;2022-11-20T15:48:04;16.83;;;3.53;;
22015;SDS011;64992;51.698;-0.292;2022-11-20T15:50:34;15.20;;;3.10;;
22015;SDS011;64992;51.698;-0.292;2022-11-20T15:53:01;18.85;;;2.55;;
22015;SDS011;64992;51.698;-0.292;2022-11-20T15:55:28;15.38;;;2.88;;
22015;SDS011;64992;51.698;-0.292;2022-11-20T15:57:54;15.32;;;3.95;;
22015;SDS011;64992;51.698;-0.292;2022-11-20T16:00:20;20.83;;;3.45;;
22015;SDS011;64992;51.698;-0.292;2022-11-20T16:02:46;18.27;;;4.13;;
22015;SDS011;64992;51.698;-0.292;2022-11-20T16:05:12;19.38;;;3.13;;
22015;SDS011;64992;51.698;-0.292;2022-11-20T16:07:39;19.55;;;3.53;;
22015;SDS011;64992;51.698;-0.292;2022-11-20T16:10:05;21.15;;;3.53;;
22015;SDS011;64992;51.698;-0.292;2022-11-20T16:12:31;17.05;;;4.00;;
22015;SDS011;64992;51.698;-0.292;2022-11-20T16:15:15;14.52;;;3.42;;
22015;SDS011;64992;51.698;-0.292;2022-11-20T16:18:00;20.05;;;3.80;;
22015;SDS011;64992;51.698;-0.292;2022-11-20T16:20:26;16.98;;;4.30;;
22015;SDS011;64992;51.698;-0.292;2022-11-20T16:22:52;21.13;;;4.28;;
22015;SDS011;64992;51.698;-0.292;2022-11-20T16:25:18;18.73;;;3.22;;
22015;SDS011;64992;51.698;-0.292;2022-11-20T16:27:44;14.60;;;3.72;;
22015;SDS011;64992;51.698;-0.292;2022-11-20T16:30:10;16.58;;;3.72;;
22015;SDS011;64992;51.698;-0.292;2022-11-20T16:32:36;13.95;;;3.65;;
22015;SDS011;64992;51.698;-0.292;2022-11-20T16:35:03;12.90;;;3.20;;
22015;SDS011;64992;51.698;-0.292;2022-11-20T16:37:29;17.20;;;3.40;;
22015;SDS011;64992;51.698;-0.292;2022-11-20T16:39:55;19.58;;;4.50;;
22015;SDS011;64992;51.698;-0.292;2022-11-20T16:42:22;15.60;;;3.50;;
22015;SDS011;64992;51.698;-0.292;2022-11-20T16:44:48;12.20;;;3.13;;
22015;SDS011;64992;51.698;-0.292;2022-11-20T16:47:13;10.30;;;3.97;;
22015;SDS011;64992;51.698;-0.292;2022-11-20T16:49:39;10.38;;;3.35;;
22015;SDS011;64992;51.698;-0.292;2022-11-20T16:52:05;21.38;;;5.10;;
22015;SDS011;64992;51.698;-0.292;2022-11-20T16:54:31;8.52;;;2.70;;
22015;SDS011;64992;51.698;-0.292;2022-11-20T16:56:57;10.70;;;2.83;;
22015;SDS011;64992;51.698;-0.292;2022-11-20T16:59:23;5.55;;;2.75;;
22015;SDS011;64992;51.698;-0.292;2022-11-20T17:01:49;10.38;;;3.47;;
22015;SDS011;64992;51.698;-0.292;2022-11-20T17:04:15;12.23;;;2.38;;
22015;SDS011;64992;51.698;-0.292;2022-11-20T17:06:42;11.20;;;2.75;;
22015;SDS011;64992;51.698;-0.292;2022-11-20T17:09:09;8.77;;;3.03;;
22015;SDS011;64992;51.698;-0.292;2022-11-20T17:11:35;13.20;;;4.75;;
22015;SDS011;64992;51.698;-0.292;2022-11-20T17:14:02;11.98;;;3.83;;
22015;SDS011;64992;51.698;-0.292;2022-11-20T17:16:28;10.85;;;2.85;;
22015;SDS011;64992;51.698;-0.292;2022-11-20T17:18:55;17.17;;;3.10;;
22015;SDS011;64992;51.698;-0.292;2022-11-20T17:21:21;10.90;;;4.07;;
22015;SDS011;64992;51.698;-0.292;2022-11-20T17:23:47;10.55;;;3.15;;
22015;SDS011;64992;51.698;-0.292;2022-11-20T17:26:20;10.10;;;4.03;;
22015;SDS011;64992;51.698;-0.292;2022-11-20T17:31:14;16.13;;;3.13;;